Startpagina
METAR-TAF:

METAR-TAF

Vliegvelden :

Kosrae, Micronesië

breedte: 05-21N, lengte: 162-57E, hoogte: 3 m

Actueel weer

Dit bericht is 7 uur en het 57 minuten geleden gemaakt, om 22:55 UTC
Wind 5 kt uit het zuiden
Temperatuur 30°C
Vochtigheid 75%
Druk 1010 hPa
Zicht: 16.1 km
Weinig wolken op 2000 ft
Gebroken wolken op 13000 ft
Gebroken wolken op 30000 ft

METAR: PTSA 232255Z 17005KT 10SM FEW020 BKN130 BKN300 30/25 A2983 RMK LAST

Tijdstip: 17:52 (06:52 UTC)

Verwachting

Dit bericht is 9 uur en het 8 minuten geleden gemaakt, om 21:44 UTC
Verwachting geldig van 23 om 22 UTC tot 24 om 18 UTC
Wind 6 kt uit het zuiden
Zicht: 10 km
Weinig wolken op 1800 ft
Verspreide wolken op 14000 ft
buien in de omgeving

TAF: PTSA 232144Z 2322/2418 17006KT P6SM VCSH FEW018 SCT140

Waarnemingen en weersverwachtingen van meer dan 4000 vliegvelden (METAR en TAF).

De beschikbare stations zijn de gele en rode punten op de kaart.

Ga met uw muis naar het station om de naam te zien.

Klik dan om waarnemingen en weersverwachtingen te zien.

kaart wijzigen: klik op de groene knoppen met een zwart kruis om in te zoomen, op de groene knop met een streepje om uit te zoomen of op de groene pijlen voor aangrenzende kaarten.


METAR-TAF: